createdAt,value
2023-04-13T00:00:32.412Z,7.30
2023-04-13T00:03:02.293Z,7.30
2023-04-13T00:05:31.862Z,7.30
2023-04-13T00:08:03.220Z,7.30
2023-04-13T00:10:36.436Z,7.30
2023-04-13T00:13:05.471Z,7.30
2023-04-13T00:15:36.911Z,7.20
2023-04-13T00:18:07.086Z,7.20
2023-04-13T00:20:35.924Z,7.20
2023-04-13T00:23:04.823Z,7.10
2023-04-13T00:25:34.695Z,7.10
2023-04-13T00:28:06.378Z,7.10
2023-04-13T00:30:34.969Z,7.10
2023-04-13T00:33:04.645Z,7.10
2023-04-13T00:35:33.369Z,7.00
2023-04-13T00:38:03.255Z,7.00
2023-04-13T00:40:31.944Z,7.00
2023-04-13T00:43:02.500Z,7.00
2023-04-13T00:45:31.451Z,7.00
2023-04-13T00:48:00.902Z,7.00
2023-04-13T00:50:29.423Z,7.00
2023-04-13T00:52:58.344Z,7.00
2023-04-13T00:55:27.892Z,7.00
2023-04-13T00:57:58.001Z,7.00
2023-04-13T01:00:28.103Z,7.00
2023-04-13T01:03:01.941Z,7.00
2023-04-13T01:05:37.590Z,7.00
2023-04-13T01:08:13.483Z,7.00
2023-04-13T01:10:51.740Z,7.00
2023-04-13T01:13:22.598Z,7.10
2023-04-13T01:15:58.409Z,7.00
2023-04-13T01:18:29.558Z,7.10
2023-04-13T01:21:00.214Z,7.10
2023-04-13T01:23:34.849Z,7.10
2023-04-13T01:26:07.244Z,7.10
2023-04-13T01:28:39.036Z,7.10
2023-04-13T01:31:11.944Z,7.10
2023-04-13T01:33:41.733Z,7.10
2023-04-13T01:36:12.051Z,7.10
2023-04-13T01:38:40.469Z,7.10
2023-04-13T01:41:09.773Z,7.10
2023-04-13T01:43:39.752Z,7.10
2023-04-13T01:46:11.976Z,7.10
2023-04-13T01:48:46.491Z,7.20
2023-04-13T01:51:18.037Z,7.10
2023-04-13T01:53:49.601Z,7.10
2023-04-13T01:56:23.273Z,7.20
2023-04-13T01:58:58.180Z,7.10
2023-04-13T02:01:27.008Z,7.20
2023-04-13T02:03:55.566Z,7.20
2023-04-13T02:06:24.765Z,7.20
2023-04-13T02:08:53.456Z,7.20
2023-04-13T02:11:22.484Z,7.20
2023-04-13T02:13:53.232Z,7.20
2023-04-13T02:16:21.717Z,7.20
2023-04-13T02:18:50.204Z,7.20
2023-04-13T02:21:18.884Z,7.20
2023-04-13T02:23:47.325Z,7.20
2023-04-13T02:26:16.468Z,7.20
2023-04-13T02:28:45.648Z,7.20
2023-04-13T02:31:17.000Z,7.20
2023-04-13T02:33:46.471Z,7.20
2023-04-13T02:36:17.663Z,7.20
2023-04-13T02:38:46.266Z,7.10
2023-04-13T02:41:14.582Z,7.10
2023-04-13T02:43:43.762Z,7.00
2023-04-13T02:46:12.349Z,7.00
2023-04-13T02:48:42.173Z,6.90
2023-04-13T02:51:11.701Z,6.90
2023-04-13T02:53:40.140Z,6.80
2023-04-13T02:56:09.707Z,6.80
2023-04-13T02:58:38.471Z,6.80
2023-04-13T03:01:07.920Z,6.70
2023-04-13T03:03:36.790Z,6.70
2023-04-13T03:06:07.024Z,6.70
2023-04-13T03:08:36.912Z,6.60
2023-04-13T03:11:06.604Z,6.60
2023-04-13T03:13:34.860Z,6.60
2023-04-13T03:16:04.741Z,6.60
2023-04-13T03:18:33.302Z,6.60
2023-04-13T03:21:02.720Z,6.60
2023-04-13T03:23:32.704Z,6.70
2023-04-13T03:26:01.157Z,6.70
2023-04-13T03:28:29.591Z,6.70
2023-04-13T03:30:58.082Z,6.60
2023-04-13T03:33:26.841Z,6.60
2023-04-13T03:35:55.526Z,6.60
2023-04-13T03:38:23.953Z,6.60
2023-04-13T03:40:53.593Z,6.50
2023-04-13T03:43:22.154Z,6.50
2023-04-13T03:45:50.620Z,6.50
2023-04-13T03:48:19.276Z,6.50
2023-04-13T03:50:47.724Z,6.50
2023-04-13T03:53:16.399Z,6.50
2023-04-13T03:55:45.082Z,6.50
2023-04-13T03:58:15.078Z,6.50
2023-04-13T04:00:43.403Z,6.50
2023-04-13T04:03:12.277Z,6.50
2023-04-13T04:05:41.360Z,6.50
2023-04-13T04:08:09.919Z,6.50
2023-04-13T04:10:38.481Z,6.40
2023-04-13T04:13:07.051Z,6.40
2023-04-13T04:15:36.930Z,6.50
2023-04-13T04:18:06.035Z,6.50
2023-04-13T04:20:37.183Z,6.40
2023-04-13T04:23:06.089Z,6.40
2023-04-13T04:25:34.645Z,6.40
2023-04-13T04:28:03.327Z,6.40
2023-04-13T04:30:33.925Z,6.40
2023-04-13T04:33:04.389Z,6.40
2023-04-13T04:35:35.499Z,6.30
2023-04-13T04:38:05.370Z,6.30
2023-04-13T04:40:35.805Z,6.30
2023-04-13T04:43:05.023Z,6.30
2023-04-13T04:45:36.405Z,6.40
2023-04-13T04:48:07.850Z,6.40
2023-04-13T04:50:37.541Z,6.50
2023-04-13T04:53:05.989Z,6.60
2023-04-13T04:55:34.907Z,6.60
2023-04-13T04:58:03.486Z,6.60
2023-04-13T05:00:31.905Z,6.60
2023-04-13T05:03:01.055Z,6.60
2023-04-13T05:05:31.341Z,6.70
2023-04-13T05:08:00.348Z,6.70
2023-04-13T05:10:29.743Z,6.70
2023-04-13T05:12:58.305Z,6.70
2023-04-13T05:15:26.866Z,6.80
2023-04-13T05:17:55.613Z,6.70
2023-04-13T05:20:24.116Z,6.80
2023-04-13T05:22:54.110Z,6.80
2023-04-13T05:25:22.559Z,6.90
2023-04-13T05:27:51.000Z,6.90
2023-04-13T05:30:20.275Z,6.90
2023-04-13T05:32:48.783Z,7.00
2023-04-13T05:35:17.041Z,7.10
2023-04-13T05:37:46.821Z,7.10
2023-04-13T05:40:17.284Z,7.10
2023-04-13T05:42:45.730Z,7.10
2023-04-13T05:45:17.140Z,7.10
2023-04-13T05:47:46.148Z,7.10
2023-04-13T05:50:14.766Z,7.10
2023-04-13T05:52:43.207Z,7.10
2023-04-13T05:55:12.131Z,7.10
2023-04-13T05:57:41.997Z,7.10
2023-04-13T06:00:12.001Z,7.10
2023-04-13T06:02:42.053Z,7.10
2023-04-13T06:05:13.812Z,7.10
2023-04-13T06:07:44.690Z,7.00
2023-04-13T06:10:14.761Z,7.10
2023-04-13T06:12:48.404Z,7.10
2023-04-13T06:15:18.494Z,7.10
2023-04-13T06:17:47.106Z,7.00
2023-04-13T06:20:16.348Z,7.00
2023-04-13T06:22:45.017Z,7.00
2023-04-13T06:25:15.071Z,7.10
2023-04-13T06:27:46.570Z,7.10
2023-04-13T06:30:15.741Z,7.00
2023-04-13T06:32:44.600Z,7.00
2023-04-13T06:35:12.972Z,7.00
2023-04-13T06:37:41.293Z,7.00
2023-04-13T06:40:12.453Z,7.00
2023-04-13T06:42:41.287Z,7.00
2023-04-13T06:45:12.619Z,7.00
2023-04-13T06:47:42.086Z,7.10
2023-04-13T06:50:13.577Z,7.00
2023-04-13T06:52:44.416Z,7.00
2023-04-13T06:55:13.217Z,7.00
2023-04-13T06:57:42.261Z,7.00
2023-04-13T07:00:28.342Z,7.00
2023-04-13T07:02:59.554Z,7.10
2023-04-13T07:05:28.230Z,7.20
2023-04-13T07:07:57.208Z,7.40
2023-04-13T07:10:26.090Z,7.40
2023-04-13T07:12:54.389Z,7.40
2023-04-13T07:15:24.476Z,7.40
2023-04-13T07:17:53.104Z,7.40
2023-04-13T07:20:22.243Z,7.40
2023-04-13T07:22:50.549Z,7.50
2023-04-13T07:25:19.236Z,7.50
2023-04-13T07:27:47.677Z,7.40
2023-04-13T07:30:16.600Z,7.50
2023-04-13T07:32:46.382Z,7.60
2023-04-13T07:35:15.763Z,7.70
2023-04-13T07:37:44.676Z,7.90
2023-04-13T07:40:14.083Z,8.00
2023-04-13T07:42:42.757Z,8.10
2023-04-13T07:45:11.914Z,8.20
2023-04-13T07:47:40.255Z,8.30
2023-04-13T07:50:10.962Z,8.40
2023-04-13T07:52:39.518Z,8.30
2023-04-13T07:55:09.049Z,8.20
2023-04-13T07:57:37.480Z,8.30
2023-04-13T08:00:07.121Z,8.40
2023-04-13T08:02:36.252Z,8.50
2023-04-13T08:05:05.388Z,8.60
2023-04-13T08:07:35.224Z,8.80
2023-04-13T08:10:04.281Z,9.10
2023-04-13T08:12:32.683Z,9.50
2023-04-13T08:15:01.155Z,9.90
2023-04-13T08:17:29.511Z,10.00
2023-04-13T08:19:58.011Z,9.90
2023-04-13T08:22:26.458Z,10.00
2023-04-13T08:24:56.716Z,9.90
2023-04-13T08:27:25.509Z,9.70
2023-04-13T08:29:56.815Z,9.70
2023-04-13T08:32:25.414Z,9.90
2023-04-13T08:34:54.778Z,9.90
2023-04-13T08:37:24.625Z,9.90
2023-04-13T08:39:56.748Z,9.90
2023-04-13T08:42:29.058Z,9.90
2023-04-13T08:45:00.434Z,10.00
2023-04-13T08:47:29.876Z,10.20
2023-04-13T08:49:59.469Z,10.50
2023-04-13T08:52:29.582Z,10.60
2023-04-13T08:54:59.457Z,10.40
2023-04-13T08:57:30.299Z,10.40
2023-04-13T08:59:59.578Z,10.40
2023-04-13T09:02:33.703Z,10.20
2023-04-13T09:05:06.882Z,9.90
2023-04-13T09:07:37.260Z,9.80
2023-04-13T09:10:08.108Z,9.80
2023-04-13T09:12:37.744Z,9.80
2023-04-13T09:15:07.685Z,9.80
2023-04-13T09:17:37.517Z,9.80
2023-04-13T09:20:18.792Z,10.00
2023-04-13T09:22:47.239Z,10.30
2023-04-13T09:25:23.720Z,10.40
2023-04-13T09:27:54.214Z,10.70
2023-04-13T09:30:24.320Z,10.50
2023-04-13T09:33:05.213Z,10.20
2023-04-13T09:35:34.176Z,10.00
2023-04-13T09:38:02.893Z,10.30
2023-04-13T09:40:31.817Z,10.70
2023-04-13T09:43:04.807Z,11.10
2023-04-13T09:45:36.813Z,11.20
2023-04-13T09:48:07.123Z,11.00
2023-04-13T09:50:37.284Z,11.00
2023-04-13T09:53:07.285Z,11.10
2023-04-13T09:55:37.404Z,11.20
2023-04-13T09:58:15.101Z,11.30
2023-04-13T10:00:45.689Z,11.40
2023-04-13T10:03:15.593Z,11.20
2023-04-13T10:05:58.734Z,11.10
2023-04-13T10:11:02.490Z,10.90
2023-04-13T10:13:42.699Z,10.80
2023-04-13T10:16:47.829Z,10.70
2023-04-13T10:19:21.219Z,10.60
2023-04-13T10:21:53.390Z,10.60
2023-04-13T10:24:23.632Z,10.70
2023-04-13T10:26:54.934Z,11.00
2023-04-13T10:29:30.461Z,11.10
2023-04-13T10:32:03.827Z,11.10
2023-04-13T10:34:34.480Z,10.90
2023-04-13T10:37:06.520Z,10.80
2023-04-13T10:39:37.060Z,10.70
2023-04-13T10:42:06.943Z,11.00
2023-04-13T10:44:50.138Z,11.00
2023-04-13T10:47:20.610Z,11.10
2023-04-13T10:49:52.229Z,10.90
2023-04-13T10:52:20.627Z,10.80
2023-04-13T10:54:49.179Z,10.80
2023-04-13T10:57:17.862Z,10.80
2023-04-13T10:59:58.624Z,10.90
2023-04-13T11:02:33.329Z,10.70
2023-04-13T11:05:02.649Z,10.90
2023-04-13T11:07:31.558Z,10.80
2023-04-13T11:12:31.581Z,11.00
2023-04-13T11:15:01.693Z,11.10
2023-04-13T11:17:31.584Z,11.20
2023-04-13T11:20:01.928Z,11.10
2023-04-13T11:22:37.191Z,11.20
2023-04-13T11:25:10.221Z,11.80
2023-04-13T11:27:38.889Z,11.80
2023-04-13T11:30:11.316Z,12.00
2023-04-13T11:32:43.186Z,12.30
2023-04-13T11:35:14.690Z,12.20
2023-04-13T11:37:44.916Z,12.00
2023-04-13T11:40:15.153Z,12.10
2023-04-13T11:42:45.006Z,12.40
2023-04-13T11:45:15.909Z,12.40
2023-04-13T11:47:46.183Z,12.60
2023-04-13T11:50:16.705Z,12.60
2023-04-13T11:52:46.803Z,12.20
2023-04-13T11:55:23.208Z,12.30
2023-04-13T11:57:53.459Z,12.80
2023-04-13T12:00:26.698Z,12.70
2023-04-13T12:05:31.417Z,12.60
2023-04-13T12:08:01.139Z,13.40
2023-04-13T12:10:38.992Z,13.60
2023-04-13T12:18:28.142Z,13.00
2023-04-13T12:21:01.856Z,12.70
2023-04-13T12:23:30.442Z,12.80
2023-04-13T12:26:00.025Z,13.50
2023-04-13T12:28:34.186Z,13.80
2023-04-13T12:31:06.571Z,14.10
2023-04-13T12:33:35.539Z,13.90
2023-04-13T12:36:06.394Z,13.70
2023-04-13T12:38:35.538Z,13.00
2023-04-13T12:41:04.472Z,12.80
2023-04-13T12:43:33.153Z,13.10
2023-04-13T12:46:01.766Z,13.40
2023-04-13T12:48:31.623Z,13.00
2023-04-13T12:51:00.261Z,13.40
2023-04-13T12:53:28.831Z,13.90
2023-04-13T12:55:57.390Z,14.30
2023-04-13T12:58:25.838Z,14.30
2023-04-13T13:00:54.688Z,14.30
2023-04-13T13:03:23.715Z,14.20
2023-04-13T13:05:53.724Z,14.30
2023-04-13T13:08:22.189Z,15.00
2023-04-13T13:10:50.925Z,14.10
2023-04-13T13:13:19.717Z,14.20
2023-04-13T13:15:48.511Z,14.80
2023-04-13T13:18:17.072Z,14.90
2023-04-13T13:20:45.886Z,14.60
2023-04-13T13:23:16.353Z,15.10
2023-04-13T13:25:52.764Z,15.30
2023-04-13T13:28:32.956Z,15.70
2023-04-13T13:31:01.624Z,15.80
2023-04-13T13:33:30.516Z,15.20
2023-04-13T13:35:59.095Z,15.10
2023-04-13T13:38:29.236Z,15.30
2023-04-13T13:40:57.877Z,15.30
2023-04-13T13:43:26.659Z,15.20
2023-04-13T13:45:58.502Z,15.30
2023-04-13T13:48:27.166Z,15.70
2023-04-13T13:50:55.995Z,15.60
2023-04-13T13:53:24.764Z,15.40
2023-04-13T13:55:55.489Z,15.00
2023-04-13T13:58:24.083Z,14.40
2023-04-13T14:00:52.385Z,14.20
2023-04-13T14:03:21.029Z,14.40
2023-04-13T14:05:49.851Z,14.20
2023-04-13T14:08:18.654Z,14.80
2023-04-13T14:10:49.394Z,14.80
2023-04-13T14:13:19.384Z,14.80
2023-04-13T14:15:49.094Z,15.30
2023-04-13T14:18:17.504Z,15.50
2023-04-13T14:20:46.510Z,15.10
2023-04-13T14:23:16.129Z,15.40
2023-04-13T14:25:44.690Z,15.00
2023-04-13T14:28:13.985Z,15.30
2023-04-13T14:30:44.092Z,15.50
2023-04-13T14:33:14.851Z,15.40
2023-04-13T14:35:43.409Z,14.90
2023-04-13T14:38:11.938Z,14.50
2023-04-13T14:40:40.373Z,14.10
2023-04-13T14:43:09.073Z,14.00
2023-04-13T14:45:37.624Z,14.00
2023-04-13T14:48:08.337Z,13.90
2023-04-13T14:50:39.559Z,13.60
2023-04-13T14:53:09.497Z,13.70
2023-04-13T14:55:38.010Z,13.90
2023-04-13T14:58:06.425Z,13.80
2023-04-13T15:00:41.391Z,13.70
2023-04-13T15:03:12.879Z,13.70
2023-04-13T15:05:42.585Z,13.80
2023-04-13T15:08:11.887Z,13.80
2023-04-13T15:10:40.264Z,13.70
2023-04-13T15:13:08.478Z,13.70
2023-04-13T15:15:38.149Z,13.60
2023-04-13T15:18:06.835Z,13.40
2023-04-13T15:20:37.656Z,13.40
2023-04-13T15:23:05.955Z,13.50
2023-04-13T15:25:37.525Z,13.30
2023-04-13T15:28:06.196Z,13.20
2023-04-13T15:30:35.358Z,13.10
2023-04-13T15:33:04.762Z,13.00
2023-04-13T15:35:35.995Z,13.10
2023-04-13T15:38:06.441Z,13.20
2023-04-13T15:40:36.332Z,13.30
2023-04-13T15:43:05.718Z,13.20
2023-04-13T15:45:34.208Z,13.10
2023-04-13T15:48:03.238Z,13.00
2023-04-13T15:50:31.643Z,12.90
2023-04-13T15:53:00.105Z,12.90
2023-04-13T15:55:29.963Z,12.90
2023-04-13T15:57:58.414Z,12.80
2023-04-13T16:00:27.805Z,12.80
2023-04-13T16:02:57.282Z,12.80
2023-04-13T16:05:26.149Z,12.80
2023-04-13T16:07:55.051Z,12.80
2023-04-13T16:10:23.611Z,12.70
2023-04-13T16:12:54.848Z,12.70
2023-04-13T16:15:24.356Z,12.60
2023-04-13T16:17:56.997Z,12.60
2023-04-13T16:20:28.519Z,12.50
2023-04-13T16:23:02.396Z,12.40
2023-04-13T16:25:31.053Z,12.40
2023-04-13T16:28:00.956Z,12.40
2023-04-13T16:30:29.263Z,12.40
2023-04-13T16:32:57.869Z,12.30
2023-04-13T16:35:26.857Z,12.30
2023-04-13T16:37:55.555Z,12.30
2023-04-13T16:40:24.214Z,12.20
2023-04-13T16:42:53.024Z,12.20
2023-04-13T16:45:24.623Z,12.20
2023-04-13T16:47:54.742Z,12.10
2023-04-13T16:50:29.018Z,12.10
2023-04-13T16:52:58.188Z,12.00
2023-04-13T16:55:28.608Z,12.00
2023-04-13T16:57:57.486Z,12.00
2023-04-13T17:00:27.101Z,11.90
2023-04-13T17:02:55.854Z,11.90
2023-04-13T17:05:28.492Z,11.90
2023-04-13T17:07:57.100Z,11.80
2023-04-13T17:10:25.672Z,11.80
2023-04-13T17:12:54.347Z,11.70
2023-04-13T17:15:23.275Z,11.70
2023-04-13T17:17:53.070Z,11.70
2023-04-13T17:20:22.082Z,11.70
2023-04-13T17:22:50.627Z,11.60
2023-04-13T17:25:19.093Z,11.50
2023-04-13T17:27:47.642Z,11.50
2023-04-13T17:30:17.163Z,11.40
2023-04-13T17:32:45.996Z,11.40
2023-04-13T17:35:16.322Z,11.30
2023-04-13T17:37:46.008Z,11.30
2023-04-13T17:40:15.004Z,11.20
2023-04-13T17:42:43.718Z,11.20
2023-04-13T17:45:13.591Z,11.10
2023-04-13T17:47:42.177Z,11.10
2023-04-13T17:50:11.532Z,11.00
2023-04-13T17:52:42.487Z,10.90
2023-04-13T17:55:11.773Z,10.90
2023-04-13T17:57:40.219Z,10.80
2023-04-13T18:00:09.964Z,10.80
2023-04-13T18:02:39.697Z,10.70
2023-04-13T18:05:15.264Z,10.70
2023-04-13T18:07:45.616Z,10.60
2023-04-13T18:10:14.420Z,10.50
2023-04-13T18:12:43.096Z,10.50
2023-04-13T18:15:12.401Z,10.40
2023-04-13T18:17:41.234Z,10.40
2023-04-13T18:20:10.937Z,10.30
2023-04-13T18:22:39.380Z,10.20
2023-04-13T18:25:10.353Z,10.20
2023-04-13T18:27:38.902Z,10.20
2023-04-13T18:30:08.904Z,10.10
2023-04-13T18:32:37.799Z,10.10
2023-04-13T18:35:07.485Z,10.00
2023-04-13T18:37:36.261Z,9.90
2023-04-13T18:40:05.434Z,9.90
2023-04-13T18:42:35.432Z,9.90
2023-04-13T18:45:04.223Z,9.80
2023-04-13T18:47:32.795Z,9.70
2023-04-13T18:50:01.612Z,9.70
2023-04-13T18:52:30.169Z,9.70
2023-04-13T18:54:58.721Z,9.70
2023-04-13T18:57:27.654Z,9.60
2023-04-13T18:59:58.136Z,9.60
2023-04-13T19:02:26.975Z,9.60
2023-04-13T19:04:55.568Z,9.50
2023-04-13T19:07:24.040Z,9.50
2023-04-13T19:09:52.544Z,9.40
2023-04-13T19:12:21.072Z,9.30
2023-04-13T19:14:49.838Z,9.30
2023-04-13T19:17:20.968Z,9.30
2023-04-13T19:19:49.849Z,9.30
2023-04-13T19:22:19.504Z,9.30
2023-04-13T19:24:48.637Z,9.30
2023-04-13T19:27:17.313Z,9.30
2023-04-13T19:29:45.874Z,9.40
2023-04-13T19:32:16.765Z,9.40
2023-04-13T19:34:46.835Z,9.40
2023-04-13T19:37:16.478Z,9.40
2023-04-13T19:39:45.157Z,9.50
2023-04-13T19:42:13.978Z,9.50
2023-04-13T19:44:42.401Z,9.50
2023-04-13T19:47:11.128Z,9.60
2023-04-13T19:49:39.890Z,9.60
2023-04-13T19:52:16.368Z,9.60
2023-04-13T19:54:45.196Z,9.60
2023-04-13T19:57:14.331Z,9.60
2023-04-13T19:59:44.204Z,9.60
2023-04-13T20:02:13.337Z,9.50
2023-04-13T20:04:42.027Z,9.50
2023-04-13T20:07:11.931Z,9.40
2023-04-13T20:09:40.620Z,9.30
2023-04-13T20:12:09.308Z,9.30
2023-04-13T20:14:39.647Z,9.20
2023-04-13T20:17:08.098Z,9.10
2023-04-13T20:19:36.883Z,9.10
2023-04-13T20:22:05.830Z,9.00
2023-04-13T20:24:35.700Z,8.90
2023-04-13T20:27:05.221Z,8.90
2023-04-13T20:29:33.657Z,8.80
2023-04-13T20:32:01.970Z,8.80
2023-04-13T20:34:30.893Z,8.70
2023-04-13T20:36:59.593Z,8.70
2023-04-13T20:39:30.225Z,8.70
2023-04-13T20:42:04.142Z,8.60
2023-04-13T20:44:38.019Z,8.60
2023-04-13T20:47:06.851Z,8.40
2023-04-13T20:49:35.238Z,8.40
2023-04-13T20:52:03.665Z,8.30
2023-04-13T20:54:31.986Z,8.30
2023-04-13T20:57:02.263Z,8.30
2023-04-13T20:59:31.152Z,8.20
2023-04-13T21:02:00.134Z,8.20
2023-04-13T21:04:28.636Z,8.20
2023-04-13T21:06:57.204Z,8.10
2023-04-13T21:09:25.873Z,8.00
2023-04-13T21:11:54.212Z,8.00
2023-04-13T21:14:24.936Z,7.90
2023-04-13T21:16:53.572Z,7.90
2023-04-13T21:19:22.521Z,7.90
2023-04-13T21:21:51.553Z,7.90
2023-04-13T21:24:19.997Z,7.80
2023-04-13T21:26:48.442Z,7.80
2023-04-13T21:29:20.297Z,7.80
2023-04-13T21:31:50.283Z,7.70
2023-04-13T21:34:18.920Z,7.70
2023-04-13T21:39:20.357Z,7.60
2023-04-13T21:41:48.796Z,7.50
2023-04-13T21:44:29.224Z,7.50
2023-04-13T21:47:00.124Z,7.50
2023-04-13T21:49:28.637Z,7.50
2023-04-13T21:51:57.081Z,7.40
2023-04-13T21:54:25.640Z,7.40
2023-04-13T21:56:53.973Z,7.30
2023-04-13T21:59:26.861Z,7.30
2023-04-13T22:01:55.972Z,7.30
2023-04-13T22:04:26.119Z,7.30
2023-04-13T22:06:54.701Z,7.30
2023-04-13T22:09:23.378Z,7.20
2023-04-13T22:11:51.938Z,7.30
2023-04-13T22:14:21.214Z,7.30
2023-04-13T22:16:49.772Z,7.40
2023-04-13T22:19:18.341Z,7.40
2023-04-13T22:21:48.110Z,7.30
2023-04-13T22:24:17.265Z,7.30
2023-04-13T22:26:46.427Z,7.30
2023-04-13T22:29:14.859Z,7.20
2023-04-13T22:31:43.466Z,7.20
2023-04-13T22:34:12.694Z,7.20
2023-04-13T22:36:41.142Z,7.20
2023-04-13T22:39:11.026Z,7.20
2023-04-13T22:41:39.606Z,7.10
2023-04-13T22:44:08.139Z,7.10
2023-04-13T22:46:36.887Z,7.10
2023-04-13T22:49:05.618Z,7.10
2023-04-13T22:51:39.477Z,7.00
2023-04-13T22:54:08.027Z,6.90
2023-04-13T22:56:37.937Z,6.90
2023-04-13T22:59:06.352Z,6.90
2023-04-13T23:01:34.815Z,6.80
2023-04-13T23:04:03.447Z,6.80
2023-04-13T23:06:32.412Z,6.80
2023-04-13T23:09:01.003Z,6.80
2023-04-13T23:11:29.629Z,6.80
2023-04-13T23:14:00.742Z,6.70
2023-04-13T23:16:29.579Z,6.70
2023-04-13T23:18:58.727Z,6.80
2023-04-13T23:21:27.779Z,6.70
2023-04-13T23:23:56.515Z,6.70
2023-04-13T23:26:24.953Z,6.60
2023-04-13T23:28:53.569Z,6.60
2023-04-13T23:31:23.407Z,6.60
2023-04-13T23:33:53.866Z,6.50
2023-04-13T23:36:23.404Z,6.50
2023-04-13T23:38:51.956Z,6.50
2023-04-13T23:41:21.241Z,6.50
2023-04-13T23:43:51.628Z,6.50
2023-04-13T23:46:20.246Z,6.50
2023-04-13T23:48:50.289Z,6.50
2023-04-13T23:51:18.724Z,6.50
2023-04-13T23:53:47.311Z,6.50
2023-04-13T23:56:16.350Z,6.50
2023-04-13T23:58:44.781Z,6.50
